SWU1922 EGKK-LIPB
Flight info
| Callsign | SWU1922 |
|---|---|
| Flight time | N/A |
| Altitude | 19000 |
| Route | MIMFO Y312 DVR L9 KONAN L607 UBIDU L984 ASKIK Z74 CINDY L603 OLETU Z106 MANAL M736 NAXAV |
| Aircraft | DH8D/M-SDE2E3FGRY/H |
Departure
| Time | 2026-05-04 11:23 |
|---|---|
| Airport | London Gatwick Airport (EGKK) |
Arrival
| Time | N/A |
|---|---|
| Airport | Bolzano Airport (LIPB) |
| Time | Latitude | Longitude | Altitude | Speed | Heading |
|---|---|---|---|---|---|
| 2026-05-04 10:51 | 51.15627 | -0.16604 | 201 ft | 0 kts | 168° |
| 2026-05-04 11:08 | 51.15648 | -0.16611 | 202 ft | 2 kts | 168° |
| 2026-05-04 11:10 | 51.15704 | -0.16587 | 202 ft | 0 kts | 258° |
| 2026-05-04 11:12 | 51.15689 | -0.16698 | 201 ft | 9 kts | 258° |
| 2026-05-04 11:12 | 51.15672 | -0.16816 | 201 ft | 12 kts | 257° |
| 2026-05-04 11:12 | 51.15651 | -0.16968 | 201 ft | 15 kts | 257° |
| 2026-05-04 11:12 | 51.15627 | -0.17140 | 200 ft | 17 kts | 257° |
| 2026-05-04 11:13 | 51.15599 | -0.17325 | 200 ft | 17 kts | 257° |
| 2026-05-04 11:13 | 51.15550 | -0.17467 | 200 ft | 13 kts | 233° |
| 2026-05-04 11:13 | 51.15521 | -0.17622 | 200 ft | 15 kts | 257° |
| 2026-05-04 11:13 | 51.15498 | -0.17802 | 200 ft | 17 kts | 259° |
| 2026-05-04 11:14 | 51.15472 | -0.17994 | 200 ft | 18 kts | 258° |
| 2026-05-04 11:14 | 51.15444 | -0.18181 | 200 ft | 16 kts | 259° |
| 2026-05-04 11:14 | 51.15401 | -0.18279 | 200 ft | 10 kts | 181° |
| 2026-05-04 11:16 | 51.15094 | -0.18979 | 202 ft | 27 kts | 258° |
| 2026-05-04 11:16 | 51.15057 | -0.19250 | 202 ft | 23 kts | 258° |
| 2026-05-04 11:16 | 51.15023 | -0.19498 | 202 ft | 21 kts | 257° |
| 2026-05-04 11:17 | 51.14991 | -0.19726 | 202 ft | 20 kts | 257° |
| 2026-05-04 11:17 | 51.14962 | -0.19941 | 202 ft | 19 kts | 257° |
| 2026-05-04 11:19 | 51.14774 | -0.21228 | 205 ft | 10 kts | 261° |
| 2026-05-04 11:19 | 51.14758 | -0.21352 | 206 ft | 11 kts | 257° |
| 2026-05-04 11:19 | 51.14704 | -0.21401 | 206 ft | 9 kts | 173° |
| 2026-05-04 11:19 | 51.14652 | -0.21346 | 206 ft | 8 kts | 141° |
| 2026-05-04 11:20 | 51.14640 | -0.21337 | 206 ft | 0 kts | 158° |
| 2026-05-04 11:20 | 51.14623 | -0.21329 | 205 ft | 5 kts | 167° |
| 2026-05-04 11:20 | 51.14570 | -0.21304 | 206 ft | 11 kts | 153° |
| 2026-05-04 11:20 | 51.14515 | -0.21220 | 205 ft | 6 kts | 111° |
| 2026-05-04 11:22 | 51.14710 | -0.19784 | 203 ft | 135 kts | 77° |
| 2026-05-04 11:22 | 51.14928 | -0.18122 | 379 ft | 158 kts | 78° |
| 2026-05-04 11:23 | 51.15103 | -0.16398 | 891 ft | 163 kts | 78° |
| 2026-05-04 11:23 | 51.15333 | -0.14657 | 1542 ft | 162 kts | 76° |
| 2026-05-04 11:24 | 51.16861 | -0.02606 | 3792 ft | 212 kts | 88° |
| 2026-05-04 11:25 | 51.16829 | -0.00216 | 4169 ft | 220 kts | 90° |
| 2026-05-04 11:25 | 51.16781 | 0.02213 | 4650 ft | 222 kts | 91° |
| 2026-05-04 11:25 | 51.16731 | 0.04704 | 5136 ft | 224 kts | 91° |
| 2026-05-04 11:26 | 51.16633 | 0.09673 | 6080 ft | 229 kts | 91° |
| 2026-05-04 11:27 | 51.16538 | 0.27980 | 9107 ft | 244 kts | 90° |
| 2026-05-04 11:28 | 51.16544 | 0.30684 | 9538 ft | 246 kts | 90° |
| 2026-05-04 11:28 | 51.16549 | 0.33385 | 9964 ft | 248 kts | 90° |
| 2026-05-04 11:28 | 51.16553 | 0.36164 | 10393 ft | 250 kts | 90° |
| 2026-05-04 11:28 | 51.16557 | 0.38929 | 10815 ft | 252 kts | 90° |
| 2026-05-04 11:29 | 51.16559 | 0.41726 | 11238 ft | 254 kts | 90° |
| 2026-05-04 11:29 | 51.16560 | 0.44538 | 11664 ft | 256 kts | 90° |
| 2026-05-04 11:29 | 51.16560 | 0.47419 | 12096 ft | 259 kts | 90° |
| 2026-05-04 11:29 | 51.16560 | 0.50300 | 12520 ft | 261 kts | 90° |
| 2026-05-04 11:31 | 51.16539 | 0.70978 | 15190 ft | 273 kts | 92° |
| 2026-05-04 11:33 | 51.16479 | 0.92582 | 17436 ft | 284 kts | 92° |
| 2026-05-04 11:33 | 51.16467 | 0.95721 | 17722 ft | 285 kts | 92° |
| 2026-05-04 11:33 | 51.16454 | 0.98847 | 18000 ft | 286 kts | 92° |
| 2026-05-04 11:34 | 51.16440 | 1.02032 | 18273 ft | 288 kts | 92° |
| 2026-05-04 11:34 | 51.16425 | 1.05240 | 18543 ft | 289 kts | 92° |
| 2026-05-04 11:34 | 51.16409 | 1.08426 | 18804 ft | 290 kts | 92° |
| 2026-05-04 11:34 | 51.16392 | 1.11638 | 19060 ft | 291 kts | 92° |
| 2026-05-04 11:35 | 51.16375 | 1.14854 | 19304 ft | 292 kts | 92° |
| 2026-05-04 11:35 | 51.16356 | 1.18117 | 19532 ft | 294 kts | 92° |
| 2026-05-04 11:35 | 51.16336 | 1.21371 | 19755 ft | 295 kts | 92° |
| 2026-05-04 11:35 | 51.16315 | 1.24635 | 19972 ft | 296 kts | 92° |
| 2026-05-04 11:36 | 51.16293 | 1.27918 | 20177 ft | 298 kts | 92° |
| 2026-05-04 11:36 | 51.16271 | 1.31197 | 20349 ft | 299 kts | 92° |
| 2026-05-04 11:36 | 51.16247 | 1.34524 | 20527 ft | 301 kts | 93° |
| 2026-05-04 11:36 | 51.16201 | 1.37837 | 20695 ft | 302 kts | 95° |
| 2026-05-04 11:37 | 51.16047 | 1.41204 | 20860 ft | 303 kts | 97° |
| 2026-05-04 11:37 | 51.15876 | 1.44510 | 21022 ft | 304 kts | 97° |
| 2026-05-04 11:37 | 51.15703 | 1.47886 | 21180 ft | 305 kts | 97° |
| 2026-05-04 11:37 | 51.15533 | 1.51241 | 21333 ft | 306 kts | 97° |
| 2026-05-04 11:38 | 51.15363 | 1.54617 | 21479 ft | 307 kts | 97° |
| 2026-05-04 11:38 | 51.15195 | 1.57979 | 21622 ft | 308 kts | 97° |
| 2026-05-04 11:38 | 51.15024 | 1.61395 | 21763 ft | 309 kts | 97° |
| 2026-05-04 11:38 | 51.14855 | 1.64778 | 21899 ft | 309 kts | 97° |
| 2026-05-04 11:39 | 51.14682 | 1.68232 | 22033 ft | 310 kts | 98° |
| 2026-05-04 11:39 | 51.14511 | 1.71624 | 22150 ft | 311 kts | 98° |
| 2026-05-04 11:40 | 51.13457 | 1.92294 | 22812 ft | 315 kts | 98° |
| 2026-05-04 11:41 | 51.13276 | 1.95769 | 22912 ft | 316 kts | 98° |
| 2026-05-04 11:41 | 51.13093 | 1.99273 | 23008 ft | 317 kts | 98° |
| 2026-05-04 11:41 | 51.12909 | 2.02768 | 23101 ft | 318 kts | 99° |
| 2026-05-04 11:41 | 51.12723 | 2.06278 | 23191 ft | 318 kts | 99° |
| 2026-05-04 11:42 | 51.12539 | 2.09759 | 23274 ft | 319 kts | 99° |
| 2026-05-04 11:42 | 51.12351 | 2.13272 | 23341 ft | 320 kts | 99° |
| 2026-05-04 11:42 | 51.12161 | 2.16794 | 23410 ft | 321 kts | 99° |
| 2026-05-04 11:42 | 51.11970 | 2.20330 | 23476 ft | 322 kts | 99° |
| 2026-05-04 11:43 | 51.11776 | 2.23888 | 23543 ft | 323 kts | 99° |
| 2026-05-04 11:43 | 51.11583 | 2.27429 | 23625 ft | 323 kts | 99° |
| 2026-05-04 11:43 | 51.11386 | 2.31013 | 23702 ft | 323 kts | 99° |
| 2026-05-04 11:43 | 51.11189 | 2.34581 | 23777 ft | 323 kts | 99° |
| 2026-05-04 11:44 | 51.10991 | 2.38134 | 23848 ft | 324 kts | 99° |
| 2026-05-04 11:44 | 51.10792 | 2.41699 | 23916 ft | 324 kts | 99° |
| 2026-05-04 11:44 | 51.10593 | 2.45243 | 23982 ft | 324 kts | 99° |
| 2026-05-04 11:44 | 51.10390 | 2.48825 | 24049 ft | 325 kts | 99° |
| 2026-05-04 11:45 | 51.10184 | 2.52451 | 24114 ft | 325 kts | 99° |
| 2026-05-04 11:45 | 51.09979 | 2.56034 | 24182 ft | 325 kts | 99° |
| 2026-05-04 11:45 | 51.09782 | 2.59536 | 24501 ft | 312 kts | 100° |
| 2026-05-04 11:45 | 51.09592 | 2.62894 | 24838 ft | 300 kts | 100° |
| 2026-05-04 11:46 | 51.09330 | 2.66141 | 24978 ft | 293 kts | 108° |
| 2026-05-04 11:46 | 51.08872 | 2.69308 | 25043 ft | 293 kts | 110° |
| 2026-05-04 11:46 | 51.08373 | 2.72516 | 25085 ft | 306 kts | 110° |
| 2026-05-04 11:46 | 51.07839 | 2.75906 | 25104 ft | 327 kts | 110° |
| 2026-05-04 11:47 | 51.07287 | 2.79473 | 25058 ft | 335 kts | 109° |
| 2026-05-04 11:47 | 51.06735 | 2.83109 | 25031 ft | 339 kts | 109° |
| 2026-05-04 11:47 | 51.06181 | 2.86735 | 25022 ft | 341 kts | 109° |
| 2026-05-04 11:47 | 51.05619 | 2.90382 | 25020 ft | 342 kts | 109° |
| 2026-05-04 11:48 | 51.05053 | 2.94067 | 25015 ft | 344 kts | 109° |
| 2026-05-04 11:48 | 51.04488 | 2.97749 | 25013 ft | 345 kts | 109° |
| 2026-05-04 11:48 | 51.03916 | 3.01487 | 25012 ft | 346 kts | 109° |
| 2026-05-04 11:48 | 51.03354 | 3.05165 | 25011 ft | 347 kts | 109° |
| 2026-05-04 11:49 | 51.02784 | 3.08887 | 25016 ft | 347 kts | 109° |
| 2026-05-04 11:49 | 51.02213 | 3.12614 | 25019 ft | 348 kts | 109° |
| 2026-05-04 11:49 | 51.01640 | 3.16348 | 25020 ft | 349 kts | 109° |
| 2026-05-04 11:49 | 51.01068 | 3.20075 | 25019 ft | 350 kts | 109° |
| 2026-05-04 11:50 | 51.00488 | 3.23842 | 25017 ft | 350 kts | 109° |
| 2026-05-04 11:50 | 50.99915 | 3.27560 | 25015 ft | 351 kts | 109° |
| 2026-05-04 11:50 | 50.99328 | 3.31360 | 25014 ft | 351 kts | 109° |
| 2026-05-04 11:50 | 50.98754 | 3.35072 | 25013 ft | 351 kts | 109° |
| 2026-05-04 11:51 | 50.98168 | 3.38844 | 25011 ft | 352 kts | 109° |
| 2026-05-04 11:51 | 50.97585 | 3.42596 | 25010 ft | 352 kts | 109° |
| 2026-05-04 11:51 | 50.96997 | 3.46364 | 25009 ft | 352 kts | 109° |
| 2026-05-04 11:51 | 50.96411 | 3.50116 | 25008 ft | 352 kts | 109° |
| 2026-05-04 11:52 | 50.95818 | 3.53908 | 25007 ft | 352 kts | 109° |
| 2026-05-04 11:52 | 50.95232 | 3.57644 | 25006 ft | 352 kts | 109° |
| 2026-05-04 11:52 | 50.94641 | 3.61401 | 25005 ft | 352 kts | 109° |
| 2026-05-04 11:52 | 50.94041 | 3.65201 | 25003 ft | 352 kts | 110° |
| 2026-05-04 11:53 | 50.93451 | 3.68934 | 25001 ft | 351 kts | 110° |
| 2026-05-04 11:53 | 50.92855 | 3.72703 | 25001 ft | 351 kts | 110° |
| 2026-05-04 11:53 | 50.92257 | 3.76470 | 25000 ft | 350 kts | 110° |
| 2026-05-04 11:53 | 50.91657 | 3.80242 | 24999 ft | 350 kts | 110° |
| 2026-05-04 11:55 | 50.87498 | 4.06148 | 24996 ft | 349 kts | 110° |
| 2026-05-04 11:55 | 50.86895 | 4.09870 | 24996 ft | 350 kts | 110° |
| 2026-05-04 11:56 | 50.86289 | 4.13606 | 24992 ft | 350 kts | 110° |
| 2026-05-04 11:56 | 50.85683 | 4.17331 | 24989 ft | 350 kts | 110° |
| 2026-05-04 11:56 | 50.85081 | 4.21024 | 24989 ft | 350 kts | 110° |
| 2026-05-04 11:56 | 50.84469 | 4.24769 | 24988 ft | 350 kts | 110° |
| 2026-05-04 11:57 | 50.83863 | 4.28471 | 24992 ft | 350 kts | 110° |
| 2026-05-04 11:57 | 50.83249 | 4.32206 | 24995 ft | 350 kts | 110° |
| 2026-05-04 11:57 | 50.82637 | 4.35929 | 24995 ft | 351 kts | 110° |
| 2026-05-04 11:57 | 50.82024 | 4.39646 | 24996 ft | 351 kts | 110° |
| 2026-05-04 11:58 | 50.81404 | 4.43399 | 24995 ft | 351 kts | 110° |
| 2026-05-04 11:58 | 50.80786 | 4.47126 | 24994 ft | 351 kts | 110° |
| 2026-05-04 11:58 | 50.80162 | 4.50889 | 24994 ft | 352 kts | 110° |
| 2026-05-04 11:58 | 50.79547 | 4.54588 | 24994 ft | 352 kts | 110° |
| 2026-05-04 11:59 | 50.78920 | 4.58349 | 24994 ft | 352 kts | 110° |
| 2026-05-04 11:59 | 50.78294 | 4.62098 | 24994 ft | 352 kts | 110° |
| 2026-05-04 11:59 | 50.77676 | 4.65791 | 24993 ft | 352 kts | 111° |
| 2026-05-04 11:59 | 50.77048 | 4.69534 | 24993 ft | 352 kts | 111° |
| 2026-05-04 12:00 | 50.76414 | 4.73302 | 24994 ft | 352 kts | 111° |
| 2026-05-04 12:00 | 50.75787 | 4.77026 | 24994 ft | 352 kts | 111° |
| 2026-05-04 12:00 | 50.75152 | 4.80789 | 24993 ft | 351 kts | 111° |
| 2026-05-04 12:00 | 50.74520 | 4.84522 | 24993 ft | 351 kts | 111° |
| 2026-05-04 12:01 | 50.73889 | 4.88242 | 24992 ft | 351 kts | 111° |
| 2026-05-04 12:01 | 50.73259 | 4.91953 | 24992 ft | 351 kts | 111° |
| 2026-05-04 12:02 | 50.69437 | 5.14267 | 24993 ft | 352 kts | 111° |
| 2026-05-04 12:03 | 50.68791 | 5.18013 | 24993 ft | 352 kts | 111° |
| 2026-05-04 12:03 | 50.68151 | 5.21717 | 24993 ft | 352 kts | 111° |
| 2026-05-04 12:03 | 50.67505 | 5.25444 | 24994 ft | 352 kts | 111° |
| 2026-05-04 12:03 | 50.66860 | 5.29162 | 24994 ft | 352 kts | 111° |
| 2026-05-04 12:04 | 50.66218 | 5.32852 | 24994 ft | 353 kts | 110° |
| 2026-05-04 12:04 | 50.65566 | 5.36596 | 24995 ft | 353 kts | 110° |
| 2026-05-04 12:04 | 50.64919 | 5.40301 | 24995 ft | 353 kts | 110° |
| 2026-05-04 12:04 | 50.64263 | 5.44042 | 24995 ft | 353 kts | 110° |
| 2026-05-04 12:05 | 50.63610 | 5.47767 | 24995 ft | 352 kts | 110° |
| 2026-05-04 12:05 | 50.62953 | 5.51502 | 24995 ft | 353 kts | 110° |
| 2026-05-04 12:05 | 50.62302 | 5.55196 | 24995 ft | 353 kts | 110° |
| 2026-05-04 12:05 | 50.61645 | 5.58920 | 24994 ft | 353 kts | 110° |
| 2026-05-04 12:06 | 50.60984 | 5.62655 | 24994 ft | 353 kts | 110° |
| 2026-05-04 12:06 | 50.60324 | 5.66381 | 24994 ft | 352 kts | 111° |
| 2026-05-04 12:06 | 50.59669 | 5.70066 | 24994 ft | 351 kts | 111° |
| 2026-05-04 12:06 | 50.59011 | 5.73770 | 24995 ft | 351 kts | 111° |
| 2026-05-04 12:07 | 50.58347 | 5.77492 | 24996 ft | 350 kts | 111° |
| 2026-05-04 12:07 | 50.57699 | 5.81121 | 24997 ft | 349 kts | 111° |
| 2026-05-04 12:07 | 50.57034 | 5.84831 | 24998 ft | 348 kts | 111° |
| 2026-05-04 12:07 | 50.56378 | 5.88486 | 25000 ft | 348 kts | 111° |
| 2026-05-04 12:08 | 50.55720 | 5.92146 | 25001 ft | 347 kts | 111° |
| 2026-05-04 12:08 | 50.55061 | 5.95803 | 25001 ft | 347 kts | 111° |
| 2026-05-04 12:08 | 50.54409 | 5.99412 | 25001 ft | 347 kts | 111° |
| 2026-05-04 12:08 | 50.53743 | 6.03093 | 25000 ft | 347 kts | 111° |
| 2026-05-04 12:09 | 50.53082 | 6.06739 | 24997 ft | 347 kts | 111° |
| 2026-05-04 12:09 | 50.52423 | 6.10369 | 24998 ft | 346 kts | 111° |
| 2026-05-04 12:09 | 50.51760 | 6.14009 | 24999 ft | 346 kts | 111° |
| 2026-05-04 12:09 | 50.51102 | 6.17615 | 25000 ft | 346 kts | 111° |
| 2026-05-04 12:10 | 50.50430 | 6.21292 | 25001 ft | 346 kts | 111° |
| 2026-05-04 12:10 | 50.49765 | 6.24927 | 25001 ft | 346 kts | 111° |
| 2026-05-04 12:10 | 50.49099 | 6.28555 | 24999 ft | 346 kts | 111° |
| 2026-05-04 12:10 | 50.48434 | 6.32170 | 24996 ft | 347 kts | 111° |
| 2026-05-04 12:11 | 50.47768 | 6.35786 | 24994 ft | 347 kts | 111° |
| 2026-05-04 12:11 | 50.47100 | 6.39403 | 24994 ft | 347 kts | 111° |
| 2026-05-04 12:11 | 50.46429 | 6.43039 | 24995 ft | 347 kts | 111° |
| 2026-05-04 12:11 | 50.45751 | 6.46695 | 24996 ft | 347 kts | 111° |
| 2026-05-04 12:12 | 50.45076 | 6.50329 | 24997 ft | 347 kts | 111° |
| 2026-05-04 12:12 | 50.44400 | 6.53965 | 24998 ft | 347 kts | 111° |
| 2026-05-04 12:12 | 50.43725 | 6.57585 | 24997 ft | 347 kts | 111° |
| 2026-05-04 12:12 | 50.43047 | 6.61214 | 24997 ft | 347 kts | 111° |
| 2026-05-04 12:13 | 50.42372 | 6.64826 | 24996 ft | 347 kts | 111° |
| 2026-05-04 12:14 | 50.37633 | 6.89960 | 25014 ft | 347 kts | 112° |
| 2026-05-04 12:15 | 50.36947 | 6.93570 | 25014 ft | 347 kts | 112° |
| 2026-05-04 12:15 | 50.36256 | 6.97196 | 25010 ft | 348 kts | 112° |
| 2026-05-04 12:15 | 50.35563 | 7.00831 | 25005 ft | 348 kts | 111° |
| 2026-05-04 12:15 | 50.34871 | 7.04448 | 24999 ft | 348 kts | 111° |
| 2026-05-04 12:16 | 50.34182 | 7.08047 | 24992 ft | 348 kts | 111° |
| 2026-05-04 12:16 | 50.33480 | 7.11711 | 24988 ft | 349 kts | 111° |
| 2026-05-04 12:16 | 50.32787 | 7.15318 | 24985 ft | 349 kts | 111° |
| 2026-05-04 12:16 | 50.32082 | 7.18978 | 24983 ft | 349 kts | 111° |
| 2026-05-04 12:17 | 50.31387 | 7.22582 | 24982 ft | 349 kts | 111° |
| 2026-05-04 12:17 | 50.30681 | 7.26232 | 24983 ft | 349 kts | 111° |
| 2026-05-04 12:17 | 50.29978 | 7.29866 | 24986 ft | 349 kts | 111° |
| 2026-05-04 12:17 | 50.29272 | 7.33500 | 24990 ft | 349 kts | 111° |
| 2026-05-04 12:18 | 50.28560 | 7.37165 | 24995 ft | 349 kts | 111° |
| 2026-05-04 12:18 | 50.27856 | 7.40779 | 24998 ft | 350 kts | 111° |
| 2026-05-04 12:18 | 50.27150 | 7.44398 | 25002 ft | 350 kts | 111° |
| 2026-05-04 12:18 | 50.26437 | 7.48040 | 25005 ft | 350 kts | 111° |
| 2026-05-04 12:19 | 50.25720 | 7.51704 | 25009 ft | 350 kts | 111° |
| 2026-05-04 12:19 | 50.25013 | 7.55308 | 25012 ft | 350 kts | 111° |
| 2026-05-04 12:19 | 50.24292 | 7.58973 | 25014 ft | 350 kts | 111° |
| 2026-05-04 12:19 | 50.23587 | 7.62554 | 25016 ft | 350 kts | 111° |
| 2026-05-04 12:20 | 50.22869 | 7.66192 | 25017 ft | 350 kts | 112° |
| 2026-05-04 12:20 | 50.22146 | 7.69845 | 25016 ft | 350 kts | 112° |
| 2026-05-04 12:20 | 50.21432 | 7.73451 | 25015 ft | 350 kts | 111° |
| 2026-05-04 12:20 | 50.20703 | 7.77124 | 25014 ft | 350 kts | 111° |
| 2026-05-04 12:21 | 50.19986 | 7.80729 | 25013 ft | 350 kts | 111° |
| 2026-05-04 12:21 | 50.19263 | 7.84361 | 25012 ft | 350 kts | 111° |
| 2026-05-04 12:21 | 50.18537 | 7.87995 | 25011 ft | 350 kts | 111° |
| 2026-05-04 12:21 | 50.17822 | 7.91571 | 25010 ft | 350 kts | 111° |
| 2026-05-04 12:22 | 50.17092 | 7.95218 | 25008 ft | 350 kts | 111° |
| 2026-05-04 12:22 | 50.16367 | 7.98832 | 25007 ft | 350 kts | 111° |
| 2026-05-04 12:22 | 50.15639 | 8.02451 | 25006 ft | 350 kts | 111° |
| 2026-05-04 12:22 | 50.14916 | 8.06037 | 25005 ft | 349 kts | 111° |
| 2026-05-04 12:23 | 50.14186 | 8.09658 | 25003 ft | 349 kts | 111° |
| 2026-05-04 12:23 | 50.13457 | 8.13260 | 25002 ft | 348 kts | 111° |
| 2026-05-04 12:23 | 50.12724 | 8.16880 | 25001 ft | 348 kts | 111° |
| 2026-05-04 12:23 | 50.11989 | 8.20481 | 24998 ft | 347 kts | 112° |
| 2026-05-04 12:24 | 50.10957 | 8.23798 | 24998 ft | 339 kts | 128° |
| 2026-05-04 12:24 | 50.09598 | 8.26807 | 24993 ft | 337 kts | 130° |
| 2026-05-04 12:24 | 50.08236 | 8.29754 | 24994 ft | 337 kts | 130° |
| 2026-05-04 12:24 | 50.06849 | 8.32751 | 24994 ft | 337 kts | 130° |
| 2026-05-04 12:25 | 50.05493 | 8.35675 | 24994 ft | 337 kts | 130° |
| 2026-05-04 12:25 | 50.04113 | 8.38654 | 24994 ft | 337 kts | 130° |
| 2026-05-04 12:25 | 50.02738 | 8.41622 | 24992 ft | 336 kts | 130° |
| 2026-05-04 12:25 | 50.01369 | 8.44574 | 24990 ft | 336 kts | 130° |
| 2026-05-04 12:26 | 50.00008 | 8.47509 | 24988 ft | 336 kts | 130° |
| 2026-05-04 12:26 | 49.98631 | 8.50476 | 24986 ft | 336 kts | 130° |
| 2026-05-04 12:26 | 49.97264 | 8.53419 | 24987 ft | 335 kts | 130° |
| 2026-05-04 12:26 | 49.95917 | 8.56315 | 24988 ft | 335 kts | 130° |
| 2026-05-04 12:27 | 49.94545 | 8.59264 | 24987 ft | 335 kts | 130° |
| 2026-05-04 12:27 | 49.93176 | 8.62199 | 24989 ft | 334 kts | 130° |
| 2026-05-04 12:27 | 49.91841 | 8.65062 | 24991 ft | 334 kts | 131° |
| 2026-05-04 12:27 | 49.90459 | 8.68023 | 24993 ft | 333 kts | 131° |
| 2026-05-04 12:28 | 49.89122 | 8.70883 | 24999 ft | 332 kts | 131° |
| 2026-05-04 12:28 | 49.87767 | 8.73779 | 25002 ft | 332 kts | 131° |
| 2026-05-04 12:28 | 49.86397 | 8.76702 | 25004 ft | 332 kts | 131° |
| 2026-05-04 12:28 | 49.85034 | 8.79606 | 25005 ft | 333 kts | 131° |
| 2026-05-04 12:29 | 49.83678 | 8.82495 | 25004 ft | 333 kts | 131° |
| 2026-05-04 12:29 | 49.82314 | 8.85397 | 25003 ft | 334 kts | 131° |
| 2026-05-04 12:29 | 49.80944 | 8.88308 | 25003 ft | 334 kts | 131° |
| 2026-05-04 12:29 | 49.79581 | 8.91203 | 25002 ft | 335 kts | 131° |
| 2026-05-04 12:30 | 49.78211 | 8.94107 | 25001 ft | 335 kts | 131° |
| 2026-05-04 12:30 | 49.76849 | 8.96993 | 25000 ft | 335 kts | 130° |
| 2026-05-04 12:30 | 49.75467 | 8.99918 | 24999 ft | 335 kts | 130° |
| 2026-05-04 12:30 | 49.74095 | 9.02817 | 24999 ft | 336 kts | 130° |
| 2026-05-04 12:31 | 49.72713 | 9.05736 | 25000 ft | 336 kts | 130° |
| 2026-05-04 12:31 | 49.71332 | 9.08649 | 25002 ft | 336 kts | 130° |
| 2026-05-04 12:31 | 49.69958 | 9.11544 | 25004 ft | 336 kts | 130° |
| 2026-05-04 12:31 | 49.68569 | 9.14468 | 25006 ft | 336 kts | 130° |
| 2026-05-04 12:32 | 49.66735 | 9.18324 | 25009 ft | 337 kts | 130° |
| 2026-05-04 12:32 | 49.64413 | 9.23195 | 25012 ft | 337 kts | 130° |
| 2026-05-04 12:32 | 49.63031 | 9.26090 | 25014 ft | 337 kts | 130° |
| 2026-05-04 12:33 | 49.61641 | 9.29002 | 25015 ft | 337 kts | 130° |
| 2026-05-04 12:33 | 49.60254 | 9.31902 | 25017 ft | 337 kts | 130° |
| 2026-05-04 12:33 | 49.58861 | 9.34810 | 25018 ft | 337 kts | 130° |
| 2026-05-04 12:33 | 49.57467 | 9.37720 | 25018 ft | 338 kts | 130° |
| 2026-05-04 12:34 | 49.56079 | 9.40612 | 25017 ft | 338 kts | 130° |
| 2026-05-04 12:34 | 49.54677 | 9.43530 | 25014 ft | 338 kts | 130° |
| 2026-05-04 12:34 | 49.53283 | 9.46428 | 25010 ft | 338 kts | 130° |
| 2026-05-04 12:34 | 49.51884 | 9.49334 | 25005 ft | 339 kts | 130° |
| 2026-05-04 12:35 | 49.50485 | 9.52238 | 25003 ft | 339 kts | 130° |
| 2026-05-04 12:35 | 49.49090 | 9.55128 | 25003 ft | 339 kts | 130° |
| 2026-05-04 12:35 | 49.47680 | 9.58049 | 25003 ft | 339 kts | 130° |
| 2026-05-04 12:35 | 49.46283 | 9.60938 | 25004 ft | 339 kts | 130° |
| 2026-05-04 12:36 | 49.44870 | 9.63858 | 25001 ft | 339 kts | 130° |
| 2026-05-04 12:36 | 49.43466 | 9.66754 | 24993 ft | 339 kts | 131° |
| 2026-05-04 12:36 | 49.42058 | 9.69655 | 24985 ft | 339 kts | 131° |
| 2026-05-04 12:36 | 49.40655 | 9.72543 | 24977 ft | 339 kts | 131° |
| 2026-05-04 12:37 | 49.39249 | 9.75436 | 24972 ft | 339 kts | 131° |
| 2026-05-04 12:37 | 49.37832 | 9.78350 | 24972 ft | 339 kts | 131° |
| 2026-05-04 12:37 | 49.36420 | 9.81247 | 24973 ft | 339 kts | 131° |
| 2026-05-04 12:37 | 49.35016 | 9.84127 | 24976 ft | 339 kts | 131° |
| 2026-05-04 12:38 | 49.33599 | 9.87028 | 24979 ft | 339 kts | 131° |
| 2026-05-04 12:38 | 49.32184 | 9.89923 | 24981 ft | 339 kts | 131° |
| 2026-05-04 12:38 | 49.30783 | 9.92784 | 24983 ft | 339 kts | 131° |
| 2026-05-04 12:38 | 49.29377 | 9.95655 | 24985 ft | 339 kts | 131° |
| 2026-05-04 12:39 | 49.27950 | 9.98564 | 24987 ft | 339 kts | 131° |
| 2026-05-04 12:39 | 49.26549 | 10.01420 | 24988 ft | 339 kts | 131° |
| 2026-05-04 12:39 | 49.25122 | 10.04324 | 24989 ft | 339 kts | 131° |
| 2026-05-04 12:39 | 49.23696 | 10.07221 | 24990 ft | 340 kts | 131° |
| 2026-05-04 12:40 | 49.22281 | 10.10095 | 24990 ft | 340 kts | 131° |
| 2026-05-04 12:40 | 49.20875 | 10.12945 | 24991 ft | 340 kts | 131° |
| 2026-05-04 12:40 | 49.19442 | 10.15850 | 24991 ft | 340 kts | 131° |
| 2026-05-04 12:40 | 49.18035 | 10.18697 | 24992 ft | 340 kts | 131° |
| 2026-05-04 12:41 | 49.16614 | 10.21570 | 24993 ft | 340 kts | 131° |
| 2026-05-04 12:41 | 49.15187 | 10.24451 | 24994 ft | 340 kts | 131° |
| 2026-05-04 12:41 | 49.13749 | 10.27353 | 24995 ft | 340 kts | 131° |
| 2026-05-04 12:41 | 49.12327 | 10.30218 | 24995 ft | 340 kts | 131° |
| 2026-05-04 12:42 | 49.10901 | 10.33088 | 24997 ft | 340 kts | 131° |
| 2026-05-04 12:42 | 49.09491 | 10.35925 | 25001 ft | 339 kts | 131° |
| 2026-05-04 12:42 | 49.08052 | 10.38814 | 25005 ft | 339 kts | 131° |
| 2026-05-04 12:42 | 49.06628 | 10.41671 | 25009 ft | 339 kts | 131° |
| 2026-05-04 12:43 | 49.05211 | 10.44513 | 25011 ft | 339 kts | 131° |
| 2026-05-04 12:43 | 49.03780 | 10.47378 | 25010 ft | 339 kts | 130° |
| 2026-05-04 12:43 | 49.02354 | 10.50228 | 25009 ft | 339 kts | 130° |
| 2026-05-04 12:43 | 49.00927 | 10.53080 | 25009 ft | 339 kts | 130° |
| 2026-05-04 12:44 | 48.99485 | 10.55957 | 25009 ft | 339 kts | 130° |
| 2026-05-04 12:44 | 48.98067 | 10.58785 | 25011 ft | 339 kts | 130° |
| 2026-05-04 12:44 | 48.96632 | 10.61644 | 25013 ft | 339 kts | 130° |
| 2026-05-04 12:44 | 48.95206 | 10.64480 | 25015 ft | 338 kts | 130° |
| 2026-05-04 12:45 | 48.93789 | 10.67297 | 25016 ft | 338 kts | 131° |
| 2026-05-04 12:45 | 48.92346 | 10.70162 | 25017 ft | 338 kts | 131° |
| 2026-05-04 12:45 | 48.90918 | 10.72994 | 25018 ft | 338 kts | 131° |
| 2026-05-04 12:45 | 48.89499 | 10.75806 | 25019 ft | 337 kts | 131° |
| 2026-05-04 12:46 | 48.88075 | 10.78624 | 25017 ft | 337 kts | 131° |
| 2026-05-04 12:46 | 48.86642 | 10.81456 | 25015 ft | 338 kts | 131° |
| 2026-05-04 12:46 | 48.85199 | 10.84306 | 25012 ft | 338 kts | 131° |
| 2026-05-04 12:46 | 48.83777 | 10.87111 | 25009 ft | 338 kts | 131° |
| 2026-05-04 12:47 | 48.82352 | 10.89920 | 25007 ft | 338 kts | 131° |
| 2026-05-04 12:47 | 48.80915 | 10.92748 | 25006 ft | 338 kts | 131° |
| 2026-05-04 12:47 | 48.79481 | 10.95567 | 25006 ft | 338 kts | 131° |
| 2026-05-04 12:47 | 48.78047 | 10.98385 | 25005 ft | 338 kts | 131° |
| 2026-05-04 12:48 | 48.76606 | 11.01212 | 25004 ft | 338 kts | 131° |
| 2026-05-04 12:48 | 48.75181 | 11.04006 | 25002 ft | 338 kts | 131° |
| 2026-05-04 12:48 | 48.73735 | 11.06838 | 25001 ft | 338 kts | 131° |
| 2026-05-04 12:48 | 48.72300 | 11.09644 | 24999 ft | 338 kts | 131° |
| 2026-05-04 12:49 | 48.70869 | 11.12440 | 24998 ft | 338 kts | 131° |
| 2026-05-04 12:49 | 48.69427 | 11.15257 | 24997 ft | 338 kts | 131° |
| 2026-05-04 12:49 | 48.67998 | 11.18043 | 24997 ft | 338 kts | 131° |
| 2026-05-04 12:49 | 48.66554 | 11.20856 | 24997 ft | 338 kts | 131° |
| 2026-05-04 12:50 | 48.65112 | 11.23663 | 24997 ft | 338 kts | 131° |
| 2026-05-04 12:50 | 48.63683 | 11.26451 | 24996 ft | 338 kts | 130° |
| 2026-05-04 12:50 | 48.62266 | 11.29295 | 24997 ft | 338 kts | 130° |
| 2026-05-04 12:50 | 48.60860 | 11.32140 | 24997 ft | 338 kts | 130° |
| 2026-05-04 12:51 | 48.59460 | 11.34966 | 24996 ft | 338 kts | 130° |
| 2026-05-04 12:51 | 48.58044 | 11.37818 | 24995 ft | 338 kts | 130° |
| 2026-05-04 12:51 | 48.56636 | 11.40649 | 24993 ft | 338 kts | 130° |
| 2026-05-04 12:51 | 48.55231 | 11.43472 | 24991 ft | 338 kts | 130° |
| 2026-05-04 12:52 | 48.53832 | 11.46278 | 24990 ft | 338 kts | 130° |
| 2026-05-04 12:52 | 48.52403 | 11.49139 | 24989 ft | 338 kts | 130° |
| 2026-05-04 12:52 | 48.50985 | 11.51977 | 24989 ft | 338 kts | 130° |
| 2026-05-04 12:52 | 48.49569 | 11.54804 | 24989 ft | 338 kts | 130° |
| 2026-05-04 12:53 | 48.48166 | 11.57602 | 24990 ft | 338 kts | 130° |
| 2026-05-04 12:53 | 48.46523 | 11.60070 | 24971 ft | 330 kts | 151° |
| 2026-05-04 12:53 | 48.44437 | 11.61275 | 25006 ft | 321 kts | 168° |
| 2026-05-04 12:53 | 48.42242 | 11.62061 | 24998 ft | 321 kts | 169° |
| 2026-05-04 12:54 | 48.40051 | 11.62820 | 24995 ft | 322 kts | 169° |
| 2026-05-04 12:54 | 48.37867 | 11.63569 | 24994 ft | 323 kts | 169° |
| 2026-05-04 12:54 | 48.35706 | 11.64310 | 24994 ft | 323 kts | 169° |
| 2026-05-04 12:54 | 48.33572 | 11.65039 | 24993 ft | 324 kts | 170° |
| 2026-05-04 12:55 | 48.31287 | 11.65818 | 24991 ft | 323 kts | 170° |
| 2026-05-04 12:55 | 48.29085 | 11.66570 | 24991 ft | 323 kts | 170° |
| 2026-05-04 12:55 | 48.26920 | 11.67307 | 24991 ft | 324 kts | 170° |
| 2026-05-04 12:55 | 48.24694 | 11.68068 | 24991 ft | 324 kts | 170° |
| 2026-05-04 12:56 | 48.22525 | 11.68815 | 24989 ft | 324 kts | 170° |
| 2026-05-04 12:56 | 48.20314 | 11.69578 | 24986 ft | 325 kts | 170° |
| 2026-05-04 12:56 | 48.18115 | 11.70335 | 24982 ft | 325 kts | 170° |
| 2026-05-04 12:56 | 48.15907 | 11.71094 | 24979 ft | 325 kts | 170° |
| 2026-05-04 12:57 | 48.13715 | 11.71847 | 24978 ft | 325 kts | 170° |
| 2026-05-04 12:57 | 48.11514 | 11.72602 | 24979 ft | 325 kts | 170° |
| 2026-05-04 12:57 | 48.09298 | 11.73361 | 24980 ft | 326 kts | 170° |
| 2026-05-04 12:57 | 48.07103 | 11.74113 | 24981 ft | 326 kts | 170° |
| 2026-05-04 12:58 | 48.04889 | 11.74871 | 24994 ft | 325 kts | 170° |
| 2026-05-04 12:58 | 48.02694 | 11.75622 | 25014 ft | 325 kts | 170° |
| 2026-05-04 12:58 | 48.00493 | 11.76374 | 25035 ft | 324 kts | 170° |
| 2026-05-04 12:58 | 47.98292 | 11.77124 | 25058 ft | 324 kts | 170° |
| 2026-05-04 12:59 | 47.96090 | 11.77875 | 25071 ft | 324 kts | 170° |
| 2026-05-04 12:59 | 47.93908 | 11.78618 | 25077 ft | 324 kts | 170° |
| 2026-05-04 12:59 | 47.91703 | 11.79367 | 25081 ft | 324 kts | 170° |
| 2026-05-04 12:59 | 47.89619 | 11.79928 | 25074 ft | 322 kts | 179° |
| 2026-05-04 13:00 | 47.87373 | 11.79906 | 25087 ft | 319 kts | 185° |
| 2026-05-04 13:00 | 47.85154 | 11.79764 | 25091 ft | 319 kts | 185° |
| 2026-05-04 13:00 | 47.82953 | 11.79623 | 25094 ft | 319 kts | 185° |
| 2026-05-04 13:00 | 47.80736 | 11.79484 | 25097 ft | 320 kts | 185° |
| 2026-05-04 13:01 | 47.78511 | 11.79348 | 25100 ft | 320 kts | 185° |
| 2026-05-04 13:01 | 47.76275 | 11.79215 | 25103 ft | 320 kts | 185° |
| 2026-05-04 13:01 | 47.74048 | 11.79084 | 25105 ft | 320 kts | 185° |
| 2026-05-04 13:01 | 47.71827 | 11.78954 | 25110 ft | 320 kts | 185° |
| 2026-05-04 13:02 | 47.69603 | 11.78826 | 25087 ft | 322 kts | 185° |
| 2026-05-04 13:02 | 47.67357 | 11.78696 | 24975 ft | 326 kts | 185° |
| 2026-05-04 13:02 | 47.65075 | 11.78565 | 24852 ft | 330 kts | 185° |
| 2026-05-04 13:02 | 47.62765 | 11.78433 | 24718 ft | 333 kts | 185° |
| 2026-05-04 13:03 | 47.60422 | 11.78299 | 24569 ft | 336 kts | 185° |
| 2026-05-04 13:03 | 47.58085 | 11.78167 | 24423 ft | 339 kts | 185° |
| 2026-05-04 13:03 | 47.55709 | 11.78034 | 24279 ft | 341 kts | 185° |
| 2026-05-04 13:04 | 47.50515 | 11.77742 | 23963 ft | 346 kts | 185° |
| 2026-05-04 13:04 | 47.48107 | 11.77609 | 23818 ft | 340 kts | 185° |
| 2026-05-04 13:04 | 47.45737 | 11.77481 | 23454 ft | 341 kts | 185° |
| 2026-05-04 13:04 | 47.43397 | 11.77353 | 23171 ft | 339 kts | 185° |
| 2026-05-04 13:05 | 47.41042 | 11.77224 | 22868 ft | 338 kts | 185° |
| 2026-05-04 13:05 | 47.38675 | 11.77094 | 22596 ft | 337 kts | 185° |
| 2026-05-04 13:05 | 47.36357 | 11.76966 | 22333 ft | 336 kts | 185° |
| 2026-05-04 13:05 | 47.34007 | 11.76836 | 22071 ft | 335 kts | 185° |
| 2026-05-04 13:06 | 47.31692 | 11.76753 | 21802 ft | 335 kts | 182° |
| 2026-05-04 13:06 | 47.29363 | 11.76866 | 21507 ft | 335 kts | 180° |
| 2026-05-04 13:06 | 47.27046 | 11.77031 | 21173 ft | 332 kts | 180° |
| 2026-05-04 13:06 | 47.24751 | 11.77201 | 20833 ft | 330 kts | 180° |
| 2026-05-04 13:07 | 47.22447 | 11.77370 | 20508 ft | 328 kts | 180° |
| 2026-05-04 13:07 | 47.20195 | 11.77532 | 20200 ft | 326 kts | 180° |
| 2026-05-04 13:07 | 47.17936 | 11.77693 | 19898 ft | 325 kts | 180° |
| 2026-05-04 13:07 | 47.15683 | 11.77849 | 19614 ft | 323 kts | 180° |
| 2026-05-04 13:08 | 47.13437 | 11.78001 | 19338 ft | 321 kts | 180° |
| 2026-05-04 13:08 | 47.11221 | 11.78151 | 19066 ft | 319 kts | 180° |
| 2026-05-04 13:08 | 47.09014 | 11.78300 | 18797 ft | 318 kts | 180° |
| 2026-05-04 13:08 | 47.06813 | 11.78445 | 18533 ft | 316 kts | 180° |
| 2026-05-04 13:09 | 47.04609 | 11.78591 | 18258 ft | 314 kts | 180° |
| 2026-05-04 13:09 | 47.02423 | 11.78734 | 17974 ft | 313 kts | 180° |
| 2026-05-04 13:09 | 47.00279 | 11.78876 | 17677 ft | 311 kts | 179° |
| 2026-05-04 13:09 | 46.98112 | 11.79018 | 17396 ft | 309 kts | 180° |
| 2026-05-04 13:10 | 46.95985 | 11.79153 | 17115 ft | 308 kts | 180° |
| 2026-05-04 13:10 | 46.93841 | 11.79288 | 16840 ft | 306 kts | 180° |
| 2026-05-04 13:10 | 46.91701 | 11.79423 | 16476 ft | 304 kts | 179° |
| 2026-05-04 13:10 | 46.89682 | 11.79555 | 16151 ft | 300 kts | 180° |
| 2026-05-04 13:11 | 46.88398 | 11.79621 | 15588 ft | 305 kts | 178° |
| 2026-05-04 13:11 | 46.86260 | 11.79669 | 15195 ft | 307 kts | 179° |
| 2026-05-04 13:11 | 46.84143 | 11.79696 | 14940 ft | 305 kts | 179° |
| 2026-05-04 13:11 | 46.82032 | 11.79866 | 14686 ft | 304 kts | 175° |
| 2026-05-04 13:12 | 46.81824 | 11.79892 | 14661 ft | 304 kts | 175° |